Terminal Aerodrome Forecast
Issued by NWS Central Illinois

Home | Current Version | Previous Version | Text Only | Print | Product List | Glossary On
Versions: 1 2 3 4 5 6 7 8 9 10 11 12 13 14 15 16 17 18
000
FTUS43 KILX 242300
TAFSPI
TAF
KSPI 242339Z 2500/2524 28012KT P6SM -DZ BKN012 OVC020
     FM250300 28009KT P6SM OVC015
      TEMPO 2511/2513 4SM BR OVC007
     FM251800 22009KT P6SM SCT250=

USA.gov is the U.S. government's official web portal to all federal, state and local government web resources and services.